Time;durP1;ratioP1;P1;durP2;ratioP2;P2;SDS_P1;SDS_P2;PMS_P1;PMS_P2;Temp;Humidity;BMP_temperature;BMP_pressure;BME280_temperature;BME280_humidity;BME280_pressure;Samples;Min_cycle;Max_cycle;Signal;HPM_P1;HPM_P2
2020/12/06 00:01:37;;;;;;;20.03;12.00;;;;;;;-2.79;76.08;101468.16;1752832;81;21138;-62
2020/12/06 00:04:07;;;;;;;20.37;10.50;;;;;;;-2.83;75.81;101470.68;1751658;81;21369;-63
2020/12/06 00:06:35;;;;;;;18.20;9.67;;;;;;;-2.91;75.79;101469.95;1755230;81;21004;-63
2020/12/06 00:09:06;;;;;;;19.87;12.70;;;;;;;-2.91;75.26;101472.58;1750004;81;21856;-65
2020/12/06 00:11:34;;;;;;;20.20;11.33;;;;;;;-3.04;75.00;101476.28;1734649;81;21024;-66
2020/12/06 00:14:02;;;;;;;24.17;12.20;;;;;;;-3.08;75.22;101471.74;1729045;81;21130;-65
2020/12/06 00:16:30;;;;;;;19.60;12.37;;;;;;;-3.09;75.02;101472.22;1729123;83;21664;-64
2020/12/06 00:18:57;;;;;;;14.83;9.17;;;;;;;-3.07;74.82;101472.59;1728938;83;21617;-67
2020/12/06 00:21:27;;;;;;;18.03;9.77;;;;;;;-3.07;74.42;101485.74;1728156;83;21129;-62
2020/12/06 00:23:55;;;;;;;15.43;9.03;;;;;;;-3.09;74.03;101482.74;1729812;81;21026;-62
2020/12/06 00:26:24;;;;;;;18.50;11.03;;;;;;;-3.09;74.26;101481.43;1729060;83;21625;-64
2020/12/06 00:28:53;;;;;;;22.30;9.77;;;;;;;-3.05;73.89;101478.08;1729244;82;22243;-63
2020/12/06 00:31:22;;;;;;;14.10;9.23;;;;;;;-3.09;73.29;101484.53;1729488;81;21222;-62
2020/12/06 00:33:50;;;;;;;20.17;10.13;;;;;;;-3.16;73.39;101478.05;1713564;83;21597;-62
2020/12/06 00:36:17;;;;;;;12.37;7.73;;;;;;;-3.20;73.25;101477.93;1770064;81;21165;-62
2020/12/06 00:38:46;;;;;;;14.20;8.63;;;;;;;-3.21;73.26;101477.56;1770163;80;21158;-63
2020/12/06 00:41:15;;;;;;;15.40;9.67;;;;;;;-3.26;73.21;101479.73;1781621;79;21367;-63
2020/12/06 00:43:43;;;;;;;17.33;9.00;;;;;;;-3.29;73.40;101481.27;1797909;79;21546;-63
2020/12/06 00:46:13;;;;;;;16.70;9.47;;;;;;;-3.30;73.61;101484.37;1775734;80;21158;-62
2020/12/06 00:48:40;;;;;;;13.33;10.27;;;;;;;-3.33;73.55;101478.05;1730777;80;21118;-63
2020/12/06 00:51:10;;;;;;;17.27;10.40;;;;;;;-3.35;73.75;101491.77;1783733;79;21122;-62
2020/12/06 00:53:42;;;;;;;16.60;7.80;;;;;;;-3.38;73.72;101485.44;1760770;79;21717;-63
2020/12/06 00:56:19;;;;;;;23.00;11.73;;;;;;;-3.34;73.88;101486.04;1807775;79;21622;-63
2020/12/06 00:58:48;;;;;;;19.10;11.03;;;;;;;-3.28;73.77;101487.73;1807816;79;21142;-63
2020/12/06 01:01:16;;;;;;;24.67;11.03;;;;;;;-3.31;73.46;101486.64;1796892;79;21094;-64
2020/12/06 01:03:45;;;;;;;17.67;10.23;;;;;;;-3.40;73.54;101482.08;1769650;81;21263;-62
2020/12/06 01:06:17;;;;;;;15.10;7.03;;;;;;;-3.44;73.22;101478.48;1769977;80;21354;-62
2020/12/06 01:08:44;;;;;;;14.30;10.67;;;;;;;-3.48;73.01;101478.36;1769316;81;21719;-63
2020/12/06 01:11:13;;;;;;;17.87;8.63;;;;;;;-3.57;73.20;101478.58;1770809;79;21630;-64
2020/12/06 01:13:41;;;;;;;13.87;9.87;;;;;;;-3.60;73.27;101488.83;1769522;80;21646;-61
2020/12/06 01:16:13;;;;;;;14.67;8.90;;;;;;;-3.67;73.36;101490.26;1769568;81;21095;-62
2020/12/06 01:18:41;;;;;;;23.20;9.80;;;;;;;-3.71;73.46;101493.23;1768068;81;21437;-62
2020/12/06 01:21:10;;;;;;;20.63;10.43;;;;;;;-3.76;73.44;101497.52;1769209;80;21206;-73
2020/12/06 01:23:38;;;;;;;20.77;10.17;;;;;;;-3.81;73.50;101495.70;1768453;79;21608;-63
2020/12/06 01:26:07;;;;;;;14.17;8.47;;;;;;;-3.78;73.57;101496.78;1773897;80;21593;-63
2020/12/06 01:28:35;;;;;;;19.57;9.90;;;;;;;-3.77;73.25;101493.67;1778137;80;21126;-63
2020/12/06 01:31:05;;;;;;;19.30;10.10;;;;;;;-3.79;73.15;101489.84;1730651;80;22869;-64
2020/12/06 01:33:34;;;;;;;15.53;10.00;;;;;;;-3.85;73.28;101492.10;1723735;82;21152;-63
2020/12/06 01:36:02;;;;;;;18.33;11.27;;;;;;;-3.88;73.34;101489.71;1749561;81;21551;-64
2020/12/06 01:38:30;;;;;;;13.23;8.43;;;;;;;-3.90;73.34;101491.60;1745452;82;21630;-62
2020/12/06 01:40:57;;;;;;;20.20;9.50;;;;;;;-3.86;73.16;101495.67;1744072;82;21576;-65
2020/12/06 01:43:25;;;;;;;14.67;8.13;;;;;;;-3.86;72.92;101499.61;1744060;82;21208;-64
2020/12/06 01:45:53;;;;;;;20.83;9.07;;;;;;;-3.89;72.75;101491.97;1747449;82;21158;-63
2020/12/06 01:48:21;;;;;;;15.70;8.93;;;;;;;-3.94;72.80;101494.94;1746266;82;21178;-63
2020/12/06 01:50:48;;;;;;;13.30;8.47;;;;;;;-3.93;72.78;101488.70;1743987;82;21172;-62
2020/12/06 01:53:16;;;;;;;19.70;10.60;;;;;;;-3.94;72.72;101495.41;1744040;82;21103;-61
2020/12/06 01:55:44;;;;;;;15.80;7.60;;;;;;;-3.99;72.83;101497.91;1743954;82;21572;-62
2020/12/06 01:58:12;;;;;;;15.83;9.53;;;;;;;-4.00;72.91;101497.53;1745717;82;21698;-61
2020/12/06 02:00:40;;;;;;;19.63;10.07;;;;;;;-3.98;72.90;101501.37;1744544;82;21126;-63
2020/12/06 02:03:07;;;;;;;16.07;10.17;;;;;;;-4.03;72.75;101496.42;1744606;82;21560;-62
2020/12/06 02:05:36;;;;;;;14.90;9.00;;;;;;;-4.06;72.85;101491.41;1749664;82;21160;-63
2020/12/06 02:08:04;;;;;;;17.80;9.40;;;;;;;-4.08;72.68;101492.48;1676404;82;21309;-64
2020/12/06 02:10:33;;;;;;;12.43;7.83;;;;;;;-4.10;72.72;101495.68;1749596;81;21597;-62
2020/12/06 02:13:01;;;;;;;17.70;10.10;;;;;;;-4.09;72.80;101489.48;1749530;81;21105;-63
2020/12/06 02:15:29;;;;;;;16.07;9.07;;;;;;;-4.01;72.88;101491.06;1745890;82;21143;-63
2020/12/06 02:17:57;;;;;;;18.77;11.90;;;;;;;-3.98;72.52;101495.61;1747856;82;21119;-63
2020/12/06 02:20:25;;;;;;;16.57;10.00;;;;;;;-3.99;72.53;101495.27;1748642;81;21141;-63
2020/12/06 02:22:52;;;;;;;14.00;10.67;;;;;;;-4.03;72.40;101496.92;1749533;82;21545;-64
2020/12/06 02:25:20;;;;;;;14.63;7.90;;;;;;;-4.08;72.52;101496.42;1745564;81;21158;-63
2020/12/06 02:27:48;;;;;;;12.47;8.30;;;;;;;-4.15;72.44;101501.27;1746890;82;21918;-62
2020/12/06 02:30:15;;;;;;;17.73;9.73;;;;;;;-4.21;72.39;101492.98;1745068;82;20992;-65
2020/12/06 02:32:43;;;;;;;13.17;9.87;;;;;;;-4.29;72.56;101502.73;1744806;80;21392;-64
2020/12/06 02:35:11;;;;;;;18.23;9.80;;;;;;;-4.28;72.61;101508.84;1746031;82;21604;-62
2020/12/06 02:37:38;;;;;;;21.90;10.00;;;;;;;-4.23;72.33;101502.78;1744628;82;21606;-63
2020/12/06 02:40:07;;;;;;;14.10;8.77;;;;;;;-4.27;72.37;101496.91;1743923;82;21547;-63
2020/12/06 02:42:34;;;;;;;10.53;8.53;;;;;;;-4.34;72.39;101506.64;1744005;82;21568;-65
2020/12/06 02:45:04;;;;;;;13.93;8.50;;;;;;;-4.42;72.47;101506.73;1744270;81;21577;-65
2020/12/06 02:47:31;;;;;;;13.00;8.53;;;;;;;-4.42;72.76;101501.95;1674798;85;21621;-64
2020/12/06 02:49:59;;;;;;;18.03;10.83;;;;;;;-4.46;72.65;101505.74;1692716;83;21184;-73
2020/12/06 02:52:27;;;;;;;24.33;9.63;;;;;;;-4.52;72.75;101507.02;1713749;83;21166;-62
2020/12/06 02:54:54;;;;;;;14.97;9.53;;;;;;;-4.50;73.01;101510.34;1749366;82;21101;-65
2020/12/06 02:57:22;;;;;;;15.23;9.23;;;;;;;-4.49;72.85;101508.09;1748151;82;21349;-63
2020/12/06 02:59:50;;;;;;;16.00;9.20;;;;;;;-4.57;72.78;101514.84;1754230;80;21165;-68
2020/12/06 03:02:18;;;;;;;18.80;10.47;;;;;;;-4.58;72.87;101518.41;1747215;82;21133;-65
2020/12/06 03:04:46;;;;;;;19.17;10.80;;;;;;;-4.58;72.90;101513.16;1743863;82;21141;-63
2020/12/06 03:07:15;;;;;;;18.47;9.27;;;;;;;-4.64;72.93;101519.67;1749314;82;21117;-63
2020/12/06 03:09:43;;;;;;;18.37;10.20;;;;;;;-4.63;73.14;101521.83;1745005;82;21209;-64
2020/12/06 03:12:10;;;;;;;14.27;10.43;;;;;;;-4.68;73.18;101521.31;1749277;82;21009;-63
2020/12/06 03:14:38;;;;;;;16.17;11.00;;;;;;;-4.65;73.29;101518.48;1749589;82;21163;-63
2020/12/06 03:17:05;;;;;;;16.53;9.80;;;;;;;-4.60;73.23;101521.13;1763961;80;21579;-62
2020/12/06 03:19:34;;;;;;;9.43;8.17;;;;;;;-4.56;73.19;101520.47;1743783;82;21108;-63
2020/12/06 03:22:02;;;;;;;20.30;10.60;;;;;;;-4.54;73.31;101524.64;1748625;82;21209;-63
2020/12/06 03:24:30;;;;;;;12.60;9.27;;;;;;;-4.49;73.19;101529.10;1749441;82;21034;-62
2020/12/06 03:26:58;;;;;;;9.27;6.97;;;;;;;-4.55;72.61;101530.84;1749507;82;21555;-64
2020/12/06 03:29:26;;;;;;;7.27;6.20;;;;;;;-4.66;72.64;101524.20;1744272;82;20988;-61
2020/12/06 03:31:53;;;;;;;15.27;11.10;;;;;;;-4.72;72.84;101528.56;1743430;82;21623;-63
2020/12/06 03:34:21;;;;;;;13.43;8.70;;;;;;;-4.72;72.98;101531.66;1758870;80;21408;-63
2020/12/06 03:36:49;;;;;;;18.43;7.63;;;;;;;-4.74;72.82;101529.13;1769045;81;21124;-64
2020/12/06 03:39:17;;;;;;;13.67;9.17;;;;;;;-4.68;72.76;101533.96;1801113;79;21105;-63
2020/12/06 03:41:45;;;;;;;12.83;8.10;;;;;;;-4.63;72.54;101540.20;1807542;79;21130;-63
2020/12/06 03:44:14;;;;;;;12.57;8.20;;;;;;;-4.58;72.01;101534.16;1793222;79;21090;-63
2020/12/06 03:46:42;;;;;;;15.77;9.37;;;;;;;-4.63;71.88;101538.89;1775705;80;21163;-63
2020/12/06 03:49:11;;;;;;;18.50;11.07;;;;;;;-4.71;71.81;101538.13;1796744;79;20987;-61
2020/12/06 03:51:38;;;;;;;8.33;7.23;;;;;;;-4.71;72.18;101539.44;1778030;79;22258;-62
2020/12/06 03:54:06;;;;;;;13.23;8.80;;;;;;;-4.69;71.78;101537.99;1775645;80;21027;-63
2020/12/06 03:56:33;;;;;;;11.83;7.17;;;;;;;-4.71;71.69;101538.59;1730975;79;21598;-62
2020/12/06 03:59:01;;;;;;;11.87;6.33;;;;;;;-4.73;71.57;101538.69;1804931;79;21438;-65
2020/12/06 04:01:28;;;;;;;14.30;7.90;;;;;;;-4.72;71.42;101539.53;1780091;79;21769;-63
2020/12/06 04:03:57;;;;;;;9.33;8.33;;;;;;;-4.74;71.50;101542.72;1769806;80;21627;-63
2020/12/06 04:06:25;;;;;;;11.57;7.40;;;;;;;-4.73;71.48;101544.41;1772535;79;22029;-64
2020/12/06 04:08:53;;;;;;;12.90;8.87;;;;;;;-4.69;71.39;101544.56;1775746;79;21114;-63
2020/12/06 04:11:21;;;;;;;16.27;8.63;;;;;;;-4.65;71.28;101541.61;1777079;79;21452;-63
2020/12/06 04:13:49;;;;;;;14.07;8.13;;;;;;;-4.67;71.22;101541.37;1780130;79;21142;-64
2020/12/06 04:16:17;;;;;;;23.83;11.47;;;;;;;-4.70;70.91;101545.02;1775730;80;21110;-63
2020/12/06 04:18:45;;;;;;;13.50;8.27;;;;;;;-4.73;71.14;101542.63;1775669;80;21043;-61
2020/12/06 04:21:12;;;;;;;18.47;9.23;;;;;;;-4.71;71.21;101548.63;1775865;80;21157;-62
2020/12/06 04:23:40;;;;;;;19.00;8.73;;;;;;;-4.78;71.07;101552.59;1770261;79;22325;-63
2020/12/06 04:26:08;;;;;;;22.27;10.20;;;;;;;-4.81;71.14;101553.30;1769520;81;21122;-63
2020/12/06 04:28:35;;;;;;;19.13;10.00;;;;;;;-4.81;71.13;101551.98;1768307;80;21650;-63
2020/12/06 04:31:03;;;;;;;20.73;10.57;;;;;;;-4.85;71.10;101555.30;1775740;80;21149;-63
2020/12/06 04:33:31;;;;;;;25.70;11.83;;;;;;;-4.93;71.17;101561.52;1782163;79;21138;-63
2020/12/06 04:35:58;;;;;;;26.77;11.77;;;;;;;-4.99;71.48;101564.59;1775820;80;21578;-63
2020/12/06 04:38:26;;;;;;;20.37;10.83;;;;;;;-5.00;71.75;101560.27;1775721;80;21591;-62
2020/12/06 04:40:54;;;;;;;16.30;10.73;;;;;;;-5.06;72.02;101563.30;1776487;79;21177;-63
2020/12/06 04:43:21;;;;;;;14.43;9.00;;;;;;;-5.10;72.25;101559.21;1784059;79;21641;-63
2020/12/06 04:45:50;;;;;;;20.83;12.47;;;;;;;-5.03;72.39;101565.70;1807930;79;21563;-65
2020/12/06 04:48:37;;;;;;;17.77;10.83;;;;;;;-4.97;72.13;101567.92;1800548;79;21709;-62
2020/12/06 04:51:04;;;;;;;23.10;11.60;;;;;;;-4.92;72.18;101569.77;1771137;79;21561;-64
2020/12/06 04:53:42;;;;;;;16.00;10.27;;;;;;;-4.96;72.08;101563.89;1776613;79;21043;-63
2020/12/06 04:56:11;;;;;;;;;;;;;;;-4.96;72.12;101567.83;1778445;80;21877;-62
2020/12/06 04:58:40;;;;;;;17.10;10.40;;;;;;;-5.01;72.05;101564.67;1775875;79;20559;-63
2020/12/06 05:01:08;;;;;;;23.97;14.50;;;;;;;-5.12;71.97;101566.33;1769860;79;21424;-62
2020/12/06 05:03:36;;;;;;;25.80;13.37;;;;;;;-5.10;72.01;101565.77;1769384;81;21158;-63
2020/12/06 05:06:05;;;;;;;19.73;8.47;;;;;;;-5.11;71.89;101567.55;1747759;81;21192;-63
2020/12/06 05:08:36;;;;;;;28.17;12.90;;;;;;;-5.16;71.94;101569.64;1769505;81;21039;-63
2020/12/06 05:11:06;;;;;;;28.77;15.50;;;;;;;-5.18;72.03;101576.80;1749345;79;20988;-62
2020/12/06 05:13:34;;;;;;;24.20;13.30;;;;;;;-5.18;72.06;101571.55;1792090;79;21130;-63
2020/12/06 05:16:03;;;;;;;25.67;16.43;;;;;;;-5.16;72.03;101576.67;1775867;80;21583;-64
2020/12/06 05:18:31;;;;;;;28.10;15.33;;;;;;;-5.11;72.10;101585.06;1708405;80;21193;-64
2020/12/06 05:21:00;;;;;;;28.83;17.90;;;;;;;-5.00;71.90;101578.64;1781635;79;21195;-72
2020/12/06 05:23:28;;;;;;;24.10;15.00;;;;;;;-4.95;71.49;101583.95;1781340;80;21628;-64
2020/12/06 05:25:55;;;;;;;21.63;12.07;;;;;;;-4.95;71.36;101576.08;1751273;80;21374;-64
2020/12/06 05:28:23;;;;;;;14.40;9.27;;;;;;;-4.96;71.18;101580.95;1751057;80;21126;-62
2020/12/06 05:30:53;;;;;;;23.53;13.10;;;;;;;-4.95;70.99;101577.39;1746529;79;21685;-63
2020/12/06 05:33:20;;;;;;;23.03;13.67;;;;;;;-4.92;71.21;101582.88;1748144;79;21606;-62
2020/12/06 05:35:48;;;;;;;24.13;14.07;;;;;;;-4.84;71.01;101584.03;1721500;82;21203;-63
2020/12/06 05:38:16;;;;;;;18.67;13.57;;;;;;;-4.76;70.71;101580.91;1719736;83;21451;-64
2020/12/06 05:40:45;;;;;;;23.73;12.03;;;;;;;-4.73;70.60;101587.71;1727053;82;21125;-63
2020/12/06 05:43:13;;;;;;;16.90;11.53;;;;;;;-4.74;70.55;101581.63;1749499;82;20986;-64
2020/12/06 05:45:40;;;;;;;21.23;11.93;;;;;;;-4.80;70.23;101583.38;1744533;82;21134;-62
2020/12/06 05:48:08;;;;;;;20.90;13.70;;;;;;;-4.86;70.43;101588.56;1744088;82;21532;-64
2020/12/06 05:50:37;;;;;;;26.27;13.77;;;;;;;-4.87;70.42;101587.35;1744160;82;21638;-65
2020/12/06 05:53:05;;;;;;;18.63;13.00;;;;;;;-4.89;70.29;101594.00;1720301;82;21576;-63
2020/12/06 05:55:33;;;;;;;18.87;11.47;;;;;;;-4.90;70.32;101593.66;1744878;82;21035;-62
2020/12/06 05:58:00;;;;;;;19.77;11.53;;;;;;;-4.91;70.42;101586.73;1668670;82;21644;-62
2020/12/06 06:00:28;;;;;;;17.23;9.37;;;;;;;-4.94;70.29;101588.73;1744257;82;21138;-64
2020/12/06 06:02:56;;;;;;;21.07;11.33;;;;;;;-4.94;70.40;101589.54;1719910;82;21221;-66
2020/12/06 06:05:24;;;;;;;17.50;8.50;;;;;;;-4.98;70.34;101588.54;1745416;81;21658;-64
2020/12/06 06:07:51;;;;;;;17.60;10.43;;;;;;;-5.04;70.27;101594.22;1715171;82;21138;-66
2020/12/06 06:10:19;;;;;;;21.13;13.93;;;;;;;-5.08;70.28;101598.81;1747347;82;21613;-71
2020/12/06 06:12:50;;;;;;;18.87;11.77;;;;;;;-5.07;70.30;101600.97;1743772;82;21558;-65
2020/12/06 06:15:17;;;;;;;20.00;10.63;;;;;;;-5.08;70.14;101609.77;1748571;81;21373;-64
2020/12/06 06:17:45;;;;;;;16.63;10.53;;;;;;;-5.07;70.02;101607.52;1720273;82;21786;-62
2020/12/06 06:20:13;;;;;;;17.17;9.87;;;;;;;-5.04;69.95;101602.94;1749560;82;20999;-63
2020/12/06 06:22:42;;;;;;;21.87;14.20;;;;;;;-5.02;69.82;101604.13;1749579;81;21607;-64
2020/12/06 06:25:11;;;;;;;16.10;8.77;;;;;;;-5.05;69.79;101606.50;1749368;82;21126;-63
2020/12/06 06:27:40;;;;;;;26.63;12.97;;;;;;;-5.02;69.35;101610.21;1720155;82;21306;-63
2020/12/06 06:30:09;;;;;;;19.43;10.30;;;;;;;-5.05;69.30;101614.83;1746186;82;21026;-64
2020/12/06 06:32:37;;;;;;;17.97;11.17;;;;;;;-5.08;69.33;101617.64;1746813;81;21570;-65
2020/12/06 06:35:07;;;;;;;19.77;10.17;;;;;;;-5.12;69.21;101613.08;1718812;82;21550;-63
2020/12/06 06:37:37;;;;;;;17.50;9.23;;;;;;;-5.14;69.58;101614.98;1748749;82;21530;-64
2020/12/06 06:40:07;;;;;;;19.90;13.30;;;;;;;-5.09;69.58;101618.14;1748853;82;22335;-66
2020/12/06 06:42:37;;;;;;;21.17;10.83;;;;;;;-5.07;69.40;101618.02;1716719;82;21114;-62
2020/12/06 06:45:12;;;;;;;11.77;8.17;;;;;;;-5.02;69.34;101619.39;1748095;81;21160;-64
2020/12/06 06:47:41;;;;;;;23.10;10.57;;;;;;;-4.94;68.72;101624.15;1748305;82;21169;-63
2020/12/06 06:50:10;;;;;;;20.57;10.77;;;;;;;-4.84;69.03;101614.22;1745441;82;21172;-64
2020/12/06 06:52:41;;;;;;;18.77;11.00;;;;;;;-4.86;68.62;101618.75;1745945;82;22274;-66
2020/12/06 06:55:10;;;;;;;14.93;9.77;;;;;;;-4.86;68.70;101619.22;1737252;82;21194;-63
2020/12/06 06:57:41;;;;;;;18.73;10.23;;;;;;;-4.79;68.63;101613.06;1750294;82;21103;-63
2020/12/06 07:00:09;;;;;;;16.83;10.07;;;;;;;-4.70;68.35;101624.27;1748240;82;21613;-62
2020/12/06 07:02:41;;;;;;;13.53;9.03;;;;;;;-4.66;68.11;101611.30;1746623;82;21126;-66
2020/12/06 07:05:20;;;;;;;13.23;9.83;;;;;;;-4.61;68.13;101619.23;1742667;82;21565;-64
2020/12/06 07:07:50;;;;;;;13.33;8.20;;;;;;;-4.55;67.75;101613.54;1744133;82;21865;-62
2020/12/06 07:10:23;;;;;;;18.60;10.33;;;;;;;-4.49;67.33;101610.97;1707557;83;21429;-62
2020/12/06 07:12:56;;;;;;;14.70;8.80;;;;;;;-4.41;67.49;101614.73;1709460;83;21178;-63
2020/12/06 07:15:25;;;;;;;15.85;8.68;;;;;;;-4.33;66.71;101612.91;1683973;85;21176;-64
2020/12/06 07:17:55;;;;;;;16.80;9.13;;;;;;;-4.35;65.99;101610.01;1703749;82;21315;-64
2020/12/06 07:20:25;;;;;;;18.67;10.33;;;;;;;-4.44;65.60;101614.96;1707157;84;21615;-63
2020/12/06 07:22:56;;;;;;;14.53;11.57;;;;;;;-4.46;65.99;101618.66;1732709;82;21141;-64
2020/12/06 07:25:24;;;;;;;17.23;11.57;;;;;;;-4.44;65.77;101618.06;1737636;82;21144;-64
2020/12/06 07:27:52;;;;;;;16.80;8.27;;;;;;;-4.43;65.63;101599.58;1713745;82;21566;-64
2020/12/06 07:30:20;;;;;;;13.90;8.87;;;;;;;-4.36;65.20;101613.10;1742872;82;21577;-63
2020/12/06 07:32:48;;;;;;;14.50;8.70;;;;;;;-4.31;64.57;101613.63;1731307;82;21068;-63
2020/12/06 07:35:16;;;;;;;13.23;8.60;;;;;;;-4.26;64.22;101620.71;1746101;80;21222;-64
2020/12/06 07:37:45;;;;;;;13.80;8.20;;;;;;;-4.23;63.58;101627.08;1748233;81;21183;-63
2020/12/06 07:40:13;;;;;;;24.23;8.83;;;;;;;-4.21;63.22;101626.95;1749321;82;21128;-65
2020/12/06 07:42:41;;;;;;;19.50;8.43;;;;;;;-4.22;63.28;101631.36;1749547;82;21315;-62
2020/12/06 07:45:09;;;;;;;13.00;9.00;;;;;;;-4.19;63.27;101634.27;1749208;82;21181;-64
2020/12/06 07:47:36;;;;;;;9.23;5.93;;;;;;;-4.17;63.26;101633.20;1709581;83;21178;-61
2020/12/06 07:50:05;;;;;;;14.70;8.67;;;;;;;-4.10;63.35;101644.97;1691118;84;21166;-65
2020/12/06 07:52:35;;;;;;;16.23;9.87;;;;;;;-4.07;63.31;101643.42;1679265;85;21187;-63
2020/12/06 07:55:08;;;;;;;23.93;7.47;;;;;;;-3.98;63.30;101649.84;1748676;82;21560;-63
2020/12/06 07:57:47;;;;;;;21.23;8.73;;;;;;;-3.99;62.24;101646.84;1749711;82;21181;-63
2020/12/06 08:00:20;;;;;;;13.77;8.47;;;;;;;-3.99;62.46;101650.80;1748626;81;20987;-63
2020/12/06 08:02:56;;;;;;;15.83;9.13;;;;;;;-3.92;62.72;101648.55;1749657;81;21665;-63
2020/12/06 08:05:27;;;;;;;26.03;11.10;;;;;;;-3.85;62.53;101645.39;1691917;82;21618;-65
2020/12/06 08:07:59;;;;;;;19.37;10.50;;;;;;;-3.82;62.45;101642.53;1749680;81;21522;-64
2020/12/06 08:10:30;;;;;;;9.43;6.77;;;;;;;-3.86;61.98;101647.66;1749635;82;21049;-64
2020/12/06 08:12:58;;;;;;;24.17;10.23;;;;;;;-3.90;62.06;101639.63;1749494;82;21113;-68
2020/12/06 08:15:28;;;;;;;22.17;9.10;;;;;;;-3.85;62.46;101641.45;1719753;83;21141;-62
2020/12/06 08:17:56;;;;;;;16.63;8.33;;;;;;;-3.81;62.04;101641.59;1732383;82;21584;-63
2020/12/06 08:20:27;;;;;;;15.33;8.23;;;;;;;-3.73;61.98;101641.88;1748159;82;21436;-65
2020/12/06 08:22:59;;;;;;;18.77;9.17;;;;;;;-3.70;61.91;101637.73;1750097;80;21040;-63
2020/12/06 08:25:34;;;;;;;14.90;9.18;;;;;;;-3.59;61.87;101636.93;1749060;82;25716;-61
2020/12/06 08:28:02;;;;;;;12.00;7.97;;;;;;;-3.56;61.37;101634.94;1749370;80;21201;-63
2020/12/06 08:30:31;;;;;;;11.70;6.90;;;;;;;-3.46;61.61;101636.42;1749301;82;21609;-63
2020/12/06 08:33:01;;;;;;;17.57;9.97;;;;;;;-3.40;60.82;101633.33;1745574;82;22252;-64
2020/12/06 08:38:26;;;;;;;14.23;8.93;;;;;;;-3.27;60.88;101635.91;1854778;76;26979;-65
2020/12/06 08:41:09;;;;;;;11.40;7.07;;;;;;;-3.26;60.52;101638.41;1826687;77;20982;-63
2020/12/06 08:43:55;;;;;;;11.77;7.07;;;;;;;-3.21;59.78;101620.97;1839615;77;21188;-65
2020/12/06 08:46:25;;;;;;;13.00;7.57;;;;;;;-3.21;59.31;101624.91;1826402;78;21603;-75
2020/12/06 08:48:54;;;;;;;10.63;6.53;;;;;;;-3.22;58.42;101628.52;1847015;77;21093;-63
2020/12/06 08:51:30;;;;;;;9.97;7.23;;;;;;;-3.24;58.61;101627.78;1847732;77;21542;-65
2020/12/06 08:54:00;;;;;;;16.57;7.73;;;;;;;-3.23;58.70;101621.58;1827108;77;21000;-67
2020/12/06 08:56:40;;;;;;;14.53;8.07;;;;;;;-3.16;58.60;101621.47;1829280;77;21184;-63
2020/12/06 08:59:16;;;;;;;13.27;8.23;;;;;;;-3.17;58.56;101612.76;1829863;78;21574;-62
2020/12/06 09:01:53;;;;;;;16.90;8.87;;;;;;;-3.02;59.21;101619.14;1797792;78;21042;-62
2020/12/06 09:04:20;;;;;;;17.57;9.63;;;;;;;-2.95;58.62;101617.23;1825936;77;21129;-66
2020/12/06 09:06:50;;;;;;;16.07;9.13;;;;;;;-2.97;58.97;101614.38;1793815;79;21181;-67
2020/12/06 09:09:18;;;;;;;7.87;5.83;;;;;;;-2.95;58.91;101615.08;1790311;79;21380;-63
2020/12/06 09:11:46;;;;;;;8.73;6.27;;;;;;;-2.92;58.40;101618.78;1794679;79;22264;-64
2020/12/06 09:14:14;;;;;;;11.70;7.53;;;;;;;-2.92;58.19;101616.16;1788678;79;21093;-63
2020/12/06 09:16:41;;;;;;;16.07;7.77;;;;;;;-2.86;58.54;101617.02;1783070;80;21148;-68
2020/12/06 09:19:11;;;;;;;11.87;6.87;;;;;;;-2.83;58.33;101620.75;1769093;80;21124;-64
2020/12/06 09:21:39;;;;;;;12.40;8.10;;;;;;;-2.78;57.91;101619.92;1779550;80;21341;-65
2020/12/06 09:24:07;;;;;;;19.47;7.40;;;;;;;-2.77;58.04;101613.68;1797129;79;21567;-67
2020/12/06 09:26:35;;;;;;;12.10;7.67;;;;;;;-2.77;58.21;101611.89;1789703;80;21578;-65
2020/12/06 09:29:02;;;;;;;12.90;8.67;;;;;;;-2.73;58.12;101618.59;1786785;80;21196;-65
2020/12/06 09:31:30;;;;;;;9.03;6.47;;;;;;;-2.67;58.11;101614.19;1760523;80;21554;-65
2020/12/06 09:33:59;;;;;;;9.83;6.70;;;;;;;-2.61;58.17;101608.93;1780119;80;21950;-64
2020/12/06 09:36:27;;;;;;;18.93;8.43;;;;;;;-2.52;58.28;101600.31;1782705;80;21217;-65
2020/12/06 09:38:54;;;;;;;19.20;9.73;;;;;;;-2.51;57.45;101599.84;1773708;80;21590;-65
2020/12/06 09:41:22;;;;;;;23.37;7.37;;;;;;;-2.49;57.77;101609.77;1779448;80;21660;-64
2020/12/06 09:43:50;;;;;;;18.93;9.83;;;;;;;-2.44;57.82;101600.55;1717475;82;21170;-63
2020/12/06 09:46:18;;;;;;;13.17;7.80;;;;;;;-2.41;57.74;101603.44;1710799;83;21503;-61
2020/12/06 09:48:46;;;;;;;9.40;6.73;;;;;;;-2.38;57.37;101608.45;1710344;83;21624;-63
2020/12/06 09:51:14;;;;;;;16.03;6.80;;;;;;;-2.39;56.94;101606.77;1688763;83;21108;-63
2020/12/06 09:53:42;;;;;;;14.17;7.77;;;;;;;-2.34;57.57;101600.67;1681646;85;21160;-65
2020/12/06 09:56:11;;;;;;;14.37;8.37;;;;;;;-2.22;57.56;101601.88;1680142;85;21202;-65
2020/12/06 09:58:38;;;;;;;17.30;8.33;;;;;;;-2.17;57.35;101598.88;1738276;82;21474;-62
2020/12/06 10:01:06;;;;;;;14.83;7.07;;;;;;;-2.08;57.61;101596.84;1737307;82;21683;-63
2020/12/06 10:03:33;;;;;;;12.63;8.37;;;;;;;-1.98;57.40;101592.98;1737651;82;21629;-63
2020/12/06 10:06:02;;;;;;;16.03;9.10;;;;;;;-1.90;57.32;101582.66;1737892;81;21430;-65
2020/12/06 10:08:30;;;;;;;16.60;7.80;;;;;;;-1.81;57.01;101588.51;1737957;82;21185;-64
2020/12/06 10:10:59;;;;;;;20.87;10.10;;;;;;;-1.73;56.62;101585.27;1737448;82;21172;-62
2020/12/06 10:13:27;;;;;;;12.07;7.80;;;;;;;-1.73;56.45;101580.84;1737594;82;21193;-65
2020/12/06 10:15:55;;;;;;;19.60;9.80;;;;;;;-1.76;56.22;101581.06;1737684;82;21143;-66
2020/12/06 10:18:22;;;;;;;23.93;11.50;;;;;;;-1.73;56.41;101579.99;1737846;82;21001;-63
2020/12/06 10:20:50;;;;;;;22.80;13.10;;;;;;;-1.66;56.13;101580.68;1737854;82;21586;-64
2020/12/06 10:23:18;;;;;;;28.93;12.60;;;;;;;-1.63;55.99;101575.14;1752824;81;21189;-63
2020/12/06 10:25:46;;;;;;;31.07;15.17;;;;;;;-1.57;56.24;101574.65;1751017;81;21136;-62
2020/12/06 10:28:14;;;;;;;32.97;11.80;;;;;;;-1.53;55.91;101572.59;1737977;82;21828;-63
2020/12/06 10:30:42;;;;;;;17.20;9.53;;;;;;;-1.52;55.57;101575.11;1737826;82;21925;-63
2020/12/06 10:33:10;;;;;;;15.33;7.77;;;;;;;-1.52;54.92;101573.80;1736146;81;21542;-67
2020/12/06 10:35:38;;;;;;;16.03;10.50;;;;;;;-1.53;54.72;101576.06;1736832;82;21372;-64
2020/12/06 10:38:06;;;;;;;28.43;10.60;;;;;;;-1.49;55.33;101570.08;1735441;82;21645;-65
2020/12/06 10:40:33;;;;;;;19.73;8.63;;;;;;;-1.40;55.54;101560.09;1734577;82;21649;-66
2020/12/06 10:43:03;;;;;;;17.17;9.30;;;;;;;-1.33;54.79;101571.31;1751635;81;21104;-66
2020/12/06 10:45:31;;;;;;;21.67;10.77;;;;;;;-1.37;54.14;101567.73;1754533;81;21152;-68
2020/12/06 10:47:58;;;;;;;12.83;7.37;;;;;;;-1.38;54.38;101562.94;1737991;82;21261;-68
2020/12/06 10:50:26;;;;;;;15.80;8.03;;;;;;;-1.29;54.81;101569.25;1738075;82;21972;-64
2020/12/06 10:52:53;;;;;;;12.97;8.10;;;;;;;-1.22;55.21;101565.63;1738084;82;21108;-65
2020/12/06 10:55:24;;;;;;;14.37;7.33;;;;;;;-1.27;55.26;101563.38;1738071;82;21668;-63
2020/12/06 10:57:52;;;;;;;13.17;7.23;;;;;;;-1.23;54.11;101567.91;1738041;82;22229;-63
2020/12/06 11:00:21;;;;;;;11.87;7.47;;;;;;;-1.19;54.28;101560.08;1737991;82;22305;-62
2020/12/06 11:02:48;;;;;;;16.37;8.90;;;;;;;-1.15;54.03;101566.80;1737688;82;21648;-62
2020/12/06 11:05:16;;;;;;;31.00;12.50;;;;;;;-1.14;53.99;101555.26;1739738;81;21237;-64
2020/12/06 11:07:43;;;;;;;19.83;10.03;;;;;;;-1.10;54.06;101552.70;1737479;82;21108;-63
2020/12/06 11:10:11;;;;;;;17.00;9.53;;;;;;;-1.07;53.05;101549.35;1725760;81;21588;-64
2020/12/06 11:12:40;;;;;;;15.03;8.80;;;;;;;-1.06;52.90;101552.83;1728341;82;21380;-64
2020/12/06 11:15:08;;;;;;;17.63;9.17;;;;;;;-1.09;53.25;101550.42;1714596;82;22011;-64
2020/12/06 11:17:36;;;;;;;12.23;6.70;;;;;;;-1.01;53.80;101553.28;1706785;84;21152;-63
2020/12/06 11:20:04;;;;;;;20.67;9.03;;;;;;;-0.93;53.83;101549.02;1721587;82;21604;-66
2020/12/06 11:22:32;;;;;;;11.73;7.07;;;;;;;-0.89;53.92;101548.27;1736381;82;21092;-67
2020/12/06 11:25:00;;;;;;;14.57;6.43;;;;;;;-0.84;53.72;101539.47;1735550;82;21618;-66